Racecast

Lawson Crews

Virginia Beach Flames (VA) · 7 · Compare head to head

Athlete rating
Races 58
Seasons 2 2025 — 2026
Speed rating — all races

Track & Field

TF speed rating

2026 TF

Virginia Beach Flames (VA) · Grade 7

Date Meet Event Result Place Rating Difficulty PR/SR Flags
2026-05-30 Va Beach Flames Invite 400m 1:18.64 3rd · 1st on team -0.023
2026-05-30 Va Beach Flames Invite 100m 16.1 20th · 1st on team -0.023 ★PR SR
2026-05-30 Va Beach Flames Invite 200m 32.69 4th · 1st on team -0.023 ★PR SR
2026-05-24 HR Hurricanes CAT 5 Invite lj 9' 9.50" -0.035
2026-05-24 HR Hurricanes CAT 5 Invite 200m 33.48 3rd · 1st on team -0.035 PR SR
2026-05-24 HR Hurricanes CAT 5 Invite 400m 1:18.45 2nd · 1st on team -0.035 ★PR SR
2026-05-16 2026 Technique Relays lj 9' 7.50" -0.035
2026-05-16 2026 Technique Relays 100m 16.36 13th · 1st on team -0.035 PR SR
2026-05-16 2026 Technique Relays 400m 1:19.9 3rd · 1st on team -0.035
2026-05-09 VA "Legends" T & F Youth Invite 400m 1:19.46 8th · 1st on team -0.033 PR SR
2026-05-09 VA "Legends" T & F Youth Invite 200m 35.38 8th · 1st on team -0.033
2026-05-09 VA "Legends" T & F Youth Invite 100m 16.82 9th · 1st on team -0.033
2026-05-02 The DMV Track and Field Classic 400m 1:24.67 2nd · 1st on team -0.021
2026-05-02 The DMV Track and Field Classic 100m 17.21 6th · 2nd on team -0.021 PR SR
2026-05-02 The DMV Track and Field Classic 200m 36.35 1st · 1st on team -0.021
2026-05-02 The DMV Track and Field Classic 100m 16.59 5th · 1st on team -0.021 PR SR
2026-04-26 Virginia Pride Spring Kick-Off 400m 1:24.57 17th · 1st on team -0.029
2026-04-26 Virginia Pride Spring Kick-Off 200m 35.97 14th · 1st on team -0.029
2026-04-26 Virginia Pride Spring Kick-Off 100m 17.71 16th · 1st on team -0.029 PR SR
2026-03-06 AAU Indoor National Championship lj 2.93m -0.036
2026-03-06 AAU Indoor National Championship 400m 1:23.2 39th · 1st on team -0.036
2026-03-06 AAU Indoor National Championship 200m 35.96 75th · 1st on team -0.036
2026-02-22 3rd Annual HRH Winter Storm Classic 400m 1:21.11 2nd · 1st on team -0.024
2026-02-22 3rd Annual HRH Winter Storm Classic 200m 34.79 4th · 1st on team -0.024 PR SR
2026-01-31 BWSP Queens and Kings - Meet 3 lj 7' 10.50" -0.024
2026-01-31 BWSP Queens and Kings - Meet 3 200m 35.96 8th · 1st on team -0.024
2026-01-31 BWSP Queens and Kings - Meet 3 55m 9.89 26th · 1st on team -0.024
2026-01-31 BWSP Queens and Kings - Meet 3 400m 1:23.13 3rd · 1st on team -0.024
2026-01-25 Virginia Beach Flames Invitational 400m 1:23.95 2nd · 2nd on team -0.036
2026-01-25 Virginia Beach Flames Invitational 60m 10.78 17th · 5th on team -0.036 ★PR SR
2026-01-25 Virginia Beach Flames Invitational 200m 35.36 10th · 3rd on team -0.036
2026-01-17 BWSP Queens and Kings - Meet 2 400m 1:20.12 2nd · 1st on team -0.024 PR SR
2026-01-17 BWSP Queens and Kings - Meet 2 55m 9.65 25th · 1st on team -0.024
2026-01-17 BWSP Queens and Kings - Meet 2 200m 35.06 3rd · 1st on team -0.024 PR SR
2026-01-04 Coach Miami Presents The DMV's INDOOR SPRINTFEST 60m 10.85 33rd · 1st on team -0.036
2026-01-04 Coach Miami Presents The DMV's INDOOR SPRINTFEST 400m 1:28.09 8th · 1st on team -0.036
2026-01-03 BWSP Queens and Kings - Meet 1 55m 9.65 21st · 1st on team -0.024 PR SR
2025-12-06 Coach Miami Presents the Virginia Beast Invitational 200m 35.57 2nd · 1st on team -0.036 PR SR
2025-12-06 Coach Miami Presents the Virginia Beast Invitational 60m 10.81 17th · 1st on team -0.036 PR SR
2025-12-06 Coach Miami Presents the Virginia Beast Invitational 400m 1:26.78 1st · 1st on team -0.036 PR SR

2025 TF

Virginia Beach Flames (VA) · Grade 6

Date Meet Event Result Place Rating Difficulty PR/SR Flags
2025-07-05 F.I.A. Freedom Invitational 50m 9.89 1st · 1st on team -0.021 ★PR SR
2025-07-05 F.I.A. Freedom Invitational 100m 18.07 1st · 1st on team -0.021
2025-07-05 F.I.A. Freedom Invitational 200m 38.31 1st · 1st on team -0.021 PR SR
2025-06-14 AAU Virginia District Qualifier (Southern) shot 41-06.00 -0.041
2025-06-14 AAU Virginia District Qualifier (Southern) 50m 10.27 4th · 1st on team -0.041
2025-06-14 AAU Virginia District Qualifier (Southern) 100m 18.52 4th · 1st on team -0.041
2025-05-31 Va Beach Flames Invite 200m 40.37 4th · 1st on team -0.023
2025-05-31 Va Beach Flames Invite 50m 10.05 8th · 2nd on team -0.023 PR SR
2025-05-31 Va Beach Flames Invite 100m 19.13 14th · 2nd on team -0.023
2025-05-31 Va Beach Flames Invite 100m 18.59 8th · 1st on team -0.023
2025-05-25 HR Hurricanes CAT 5 Invite 55m 10.27 4th · 1st on team -0.035 PR SR
2025-05-25 HR Hurricanes CAT 5 Invite 100m 18.01 3rd · 1st on team -0.035 PR SR
2025-05-25 HR Hurricanes CAT 5 Invite 200m 38.42 1st · 1st on team -0.035 PR SR
2025-05-25 HR Hurricanes CAT 5 Invite 100m 18.53 9th · 2nd on team -0.035
2025-05-04 Queen Harrison Youth Invite javelin DNS -0.033
2025-04-27 TRACK 757 Classic javelin 6.71m -0.029
2025-04-27 TRACK 757 Classic 100m 19.13 6th · 2nd on team -0.029 PR SR
2025-04-27 TRACK 757 Classic 100m 19.09 5th · 1st on team -0.029 PR SR